Gemini Sun — D5FI6 — position and weather

sailwx.info

Track history (hours):
 
Tides and Currents Weather Stations Pressure Air Temp Water Temp Dewpoint Dewpoint Depression Visibility Wind Speed Wind Dir Waves Ship Positions

Gemini Sun

Last reported at 2017-Dec-16 14:23 UTC. Time now 2017-Dec-17 04:10 UTC.
Position N 36°53' E 012°47'.

Length 244 m; draft 14.3 m.

Type: Ship (hazmat cat A). MMSI: 636016275.

Date/timePositionNaut miles runAvg speedWind from/ knotsBaromVisibWave heightAir tempDewpointWater temp
2017-Dec-16 14:23N 36°53' E 012°47'410.9
2017-Dec-16 14:00N 36°52' E 012°52'510.9
2017-Dec-16 13:30N 36°50' E 012°59'611.0
2017-Dec-16 13:00N 36°49' E 013°05'611.3
2017-Dec-16 12:30N 36°47' E 013°12'611.2
2017-Dec-16 12:00N 36°45' E 013°19'711.1
2017-Dec-16 11:20N 36°43' E 013°28'1711.0
2017-Dec-16 09:47N 36°39' E 013°48'311.2
2017-Dec-16 09:30N 36°38' E 013°52'611.1
2017-Dec-16 09:00N 36°37' E 013°59'611.2
2017-Dec-16 08:30N 36°34' E 014°05'611.3
2017-Dec-16 08:00N 36°33' E 014°12'611.2
2017-Dec-16 07:30N 36°31' E 014°18'611.0
2017-Dec-16 07:00N 36°30' E 014°25'510.9
2017-Dec-16 06:30N 36°28' E 014°32'510.7
2017-Dec-16 06:00N 36°27' E 014°38'510.7
2017-Dec-16 05:30N 36°27' E 014°45'510.7
2017-Dec-16 05:00N 36°27' E 014°51'38410.8
2017-Dec-14 17:23N 36°25' E 022°48'510.8
2017-Dec-14 16:58N 36°26' E 022°54'3810.5
2017-Dec-14 13:18N 36°33' E 023°40'311.4
2017-Dec-14 13:00N 36°35' E 023°44'611.5
2017-Dec-14 12:30N 36°38' E 023°49'611.1
2017-Dec-14 12:00N 36°42' E 023°54'611.1
2017-Dec-14 11:30N 36°45' E 023°60'510.6
2017-Dec-14 11:00N 36°50' E 024°04'611.5
2017-Dec-14 10:30N 36°55' E 024°05'611.3
2017-Dec-14 10:00N 37°01' E 024°07'611.3
2017-Dec-14 09:30N 37°06' E 024°09'611.4
2017-Dec-14 09:00N 37°12' E 024°11'611.4
2017-Dec-14 08:30N 37°17' E 024°13'611.4
2017-Dec-14 08:00N 37°22' E 024°15'611.3
2017-Dec-14 07:30N 37°27' E 024°19'611.6
2017-Dec-14 07:00N 37°32' E 024°23'611.7
2017-Dec-14 06:30N 37°36' E 024°28'611.6
2017-Dec-14 06:00N 37°42' E 024°31'611.7
2017-Dec-14 05:30N 37°47' E 024°33'611.5
2017-Dec-14 05:00N 37°53' E 024°35'611.7
2017-Dec-14 04:30N 37°58' E 024°38'1211.6
2017-Dec-14 03:28N 38°09' E 024°45'511.8
2017-Dec-14 03:00N 38°14' E 024°48'611.6
2017-Dec-14 02:30N 38°19' E 024°51'611.3
2017-Dec-14 02:00N 38°24' E 024°54'611.4
2017-Dec-14 01:30N 38°29' E 024°57'711.4
2017-Dec-14 00:56N 38°35' E 025°01'511.1
2017-Dec-14 00:29N 38°40' E 025°04'611.2
2017-Dec-13 23:57N 38°45' E 025°08'511.3
2017-Dec-13 23:30N 38°49' E 025°11'7811.2
2017-Dec-13 16:35N 39°59' E 025°56'211.3
2017-Dec-13 16:24N 39°60' E 025°58'710.7
2017-Dec-13 15:46N 40°02' E 026°07'  
2017-Dec-09 09:39N 40°55' E 028°52'1 7.1
2017-Dec-09 09:30N 40°55' E 028°54'1 1.5
2017-Dec-09 08:47N 40°56' E 028°55'  
Track history (hours):
 
Tides and Currents Weather Stations Pressure Air Temp Water Temp Dewpoint Dewpoint Depression Visibility Wind Speed Wind Dir Waves Ship Positions

Gemini Sun

Last reported at 2017-Dec-16 14:23 UTC. Time now 2017-Dec-17 04:10 UTC.
Position N 36°53' E 012°47'.

Length 244 m; draft 14.3 m.

Type: Ship (hazmat cat A). MMSI: 636016275.

Date/timePositionNaut miles runAvg speedWind from/ knotsBaromVisibWave heightAir tempDewpointWater temp
2017-Dec-16 14:23N 36°53' E 012°47'410.9
2017-Dec-16 14:00N 36°52' E 012°52'510.9
2017-Dec-16 13:30N 36°50' E 012°59'611.0
2017-Dec-16 13:00N 36°49' E 013°05'611.3
2017-Dec-16 12:30N 36°47' E 013°12'611.2
2017-Dec-16 12:00N 36°45' E 013°19'711.1
2017-Dec-16 11:20N 36°43' E 013°28'1711.0
2017-Dec-16 09:47N 36°39' E 013°48'311.2
2017-Dec-16 09:30N 36°38' E 013°52'611.1
2017-Dec-16 09:00N 36°37' E 013°59'611.2
2017-Dec-16 08:30N 36°34' E 014°05'611.3
2017-Dec-16 08:00N 36°33' E 014°12'611.2
2017-Dec-16 07:30N 36°31' E 014°18'611.0
2017-Dec-16 07:00N 36°30' E 014°25'510.9
2017-Dec-16 06:30N 36°28' E 014°32'510.7
2017-Dec-16 06:00N 36°27' E 014°38'510.7
2017-Dec-16 05:30N 36°27' E 014°45'510.7
2017-Dec-16 05:00N 36°27' E 014°51'38410.8
2017-Dec-14 17:23N 36°25' E 022°48'510.8
2017-Dec-14 16:58N 36°26' E 022°54'3810.5
2017-Dec-14 13:18N 36°33' E 023°40'311.4
2017-Dec-14 13:00N 36°35' E 023°44'611.5
2017-Dec-14 12:30N 36°38' E 023°49'611.1
2017-Dec-14 12:00N 36°42' E 023°54'611.1
2017-Dec-14 11:30N 36°45' E 023°60'510.6
2017-Dec-14 11:00N 36°50' E 024°04'611.5
2017-Dec-14 10:30N 36°55' E 024°05'611.3
2017-Dec-14 10:00N 37°01' E 024°07'611.3
2017-Dec-14 09:30N 37°06' E 024°09'611.4
2017-Dec-14 09:00N 37°12' E 024°11'611.4
2017-Dec-14 08:30N 37°17' E 024°13'611.4
2017-Dec-14 08:00N 37°22' E 024°15'611.3
2017-Dec-14 07:30N 37°27' E 024°19'611.6
2017-Dec-14 07:00N 37°32' E 024°23'611.7
2017-Dec-14 06:30N 37°36' E 024°28'611.6
2017-Dec-14 06:00N 37°42' E 024°31'611.7
2017-Dec-14 05:30N 37°47' E 024°33'611.5
2017-Dec-14 05:00N 37°53' E 024°35'611.7
2017-Dec-14 04:30N 37°58' E 024°38'1211.6
2017-Dec-14 03:28N 38°09' E 024°45'511.8
2017-Dec-14 03:00N 38°14' E 024°48'611.6
2017-Dec-14 02:30N 38°19' E 024°51'611.3
2017-Dec-14 02:00N 38°24' E 024°54'611.4
2017-Dec-14 01:30N 38°29' E 024°57'711.4
2017-Dec-14 00:56N 38°35' E 025°01'511.1
2017-Dec-14 00:29N 38°40' E 025°04'611.2
2017-Dec-13 23:57N 38°45' E 025°08'511.3
2017-Dec-13 23:30N 38°49' E 025°11'7811.2
2017-Dec-13 16:35N 39°59' E 025°56'211.3
2017-Dec-13 16:24N 39°60' E 025°58'710.7
2017-Dec-13 15:46N 40°02' E 026°07'  
2017-Dec-09 09:39N 40°55' E 028°52'1 7.1
2017-Dec-09 09:30N 40°55' E 028°54'1 1.5
2017-Dec-09 08:47N 40°56' E 028°55'  

Dump ship's entire track history